createdAt,value
2022-11-24T00:01:23.755Z,100165.25
2022-11-24T00:04:14.419Z,100171.75
2022-11-24T00:06:41.726Z,100170.16
2022-11-24T00:09:10.819Z,100183.03
2022-11-24T00:11:41.068Z,100172.75
2022-11-24T00:14:08.505Z,100184.75
2022-11-24T00:16:37.443Z,100185.84
2022-11-24T00:19:09.308Z,100195.56
2022-11-24T00:21:38.156Z,100190.16
2022-11-24T00:24:06.408Z,100193.44
2022-11-24T00:26:35.156Z,100204.44
2022-11-24T00:29:05.861Z,100194.44
2022-11-24T00:31:36.905Z,100209.22
2022-11-24T00:34:07.376Z,100202.31
2022-11-24T00:36:36.013Z,100211.75
2022-11-24T00:39:11.140Z,100200.72
2022-11-24T00:41:38.967Z,100210.91
2022-11-24T00:44:06.647Z,100217.78
2022-11-24T00:46:34.926Z,100216.19
2022-11-24T00:49:02.560Z,100213.47
2022-11-24T00:51:30.539Z,100198.91
2022-11-24T00:54:01.836Z,100214.06
2022-11-24T00:56:30.376Z,100214.84
2022-11-24T00:58:58.066Z,100214.16
2022-11-24T01:01:27.608Z,100220.56
2022-11-24T01:03:55.868Z,100213.88
2022-11-24T01:06:26.045Z,100217.69
2022-11-24T01:08:54.472Z,100213.16
2022-11-24T01:11:51.599Z,100219.06
2022-11-24T01:14:22.407Z,100232.41
2022-11-24T01:16:49.944Z,100235.22
2022-11-24T01:19:17.947Z,100236.25
2022-11-24T01:21:45.951Z,100242.91
2022-11-24T01:24:13.642Z,100240.88
2022-11-24T01:26:41.412Z,100247.94
2022-11-24T01:29:10.613Z,100255.88
2022-11-24T01:31:38.506Z,100254.09
2022-11-24T01:34:06.449Z,100249.03
2022-11-24T01:36:34.086Z,100249.66
2022-11-24T01:39:01.512Z,100258.31
2022-11-24T01:41:28.799Z,100257.78
2022-11-24T01:43:56.752Z,100262.09
2022-11-24T01:46:43.807Z,100257.06
2022-11-24T01:49:18.077Z,100256.97
2022-11-24T01:51:53.269Z,100264.19
2022-11-24T01:54:25.392Z,100266.00
2022-11-24T01:56:56.264Z,100263.47
2022-11-24T01:59:26.661Z,100270.13
2022-11-24T02:01:56.186Z,100261.41
2022-11-24T02:04:29.547Z,100262.44
2022-11-24T02:07:00.528Z,100261.66
2022-11-24T02:09:34.395Z,100266.72
2022-11-24T02:12:02.543Z,100261.56
2022-11-24T02:14:30.059Z,100253.25
2022-11-24T02:16:57.442Z,100268.13
2022-11-24T02:19:59.246Z,100276.22
2022-11-24T02:22:44.521Z,100287.38
2022-11-24T02:25:24.069Z,100286.34
2022-11-24T02:27:54.252Z,100283.72
2022-11-24T02:30:22.536Z,100293.34
2022-11-24T02:32:50.283Z,100293.91
2022-11-24T02:35:17.838Z,100282.94
2022-11-24T02:37:45.254Z,100301.44
2022-11-24T02:40:16.782Z,100299.44
2022-11-24T02:42:47.236Z,100314.09
2022-11-24T02:45:16.547Z,100313.56
2022-11-24T02:47:44.544Z,100315.41
2022-11-24T02:50:12.200Z,100317.91
2022-11-24T02:52:39.546Z,100318.22
2022-11-24T02:55:07.176Z,100313.91
2022-11-24T02:57:34.781Z,100317.13
2022-11-24T03:00:02.329Z,100318.66
2022-11-24T03:02:30.712Z,100321.72
2022-11-24T03:05:00.837Z,100320.38
2022-11-24T03:07:28.244Z,100324.22
2022-11-24T03:09:55.678Z,100318.41
2022-11-24T03:12:23.003Z,100330.72
2022-11-24T03:14:50.417Z,100331.50
2022-11-24T03:17:17.782Z,100314.19
2022-11-24T03:19:45.249Z,100338.19
2022-11-24T03:22:13.615Z,100344.19
2022-11-24T03:24:41.110Z,100352.03
2022-11-24T03:27:08.533Z,100344.25
2022-11-24T03:29:35.935Z,100346.94
2022-11-24T03:32:03.329Z,100351.03
2022-11-24T03:34:30.843Z,100349.69
2022-11-24T03:36:58.505Z,100348.88
2022-11-24T03:39:26.075Z,100351.84
2022-11-24T03:41:53.661Z,100354.28
2022-11-24T03:44:21.157Z,100352.19
2022-11-24T03:46:48.606Z,100359.81
2022-11-24T03:49:16.073Z,100352.53
2022-11-24T03:51:43.430Z,100341.47
2022-11-24T03:54:10.809Z,100351.25
2022-11-24T03:56:38.225Z,100341.38
2022-11-24T03:59:05.726Z,100347.16
2022-11-24T04:01:33.256Z,100345.53
2022-11-24T04:04:00.915Z,100352.19
2022-11-24T04:06:28.370Z,100353.56
2022-11-24T04:08:58.489Z,100362.97
2022-11-24T04:11:44.555Z,100353.59
2022-11-24T04:14:13.703Z,100352.44
2022-11-24T04:16:44.385Z,100366.16
2022-11-24T04:19:12.640Z,100370.25
2022-11-24T04:21:40.011Z,100367.53
2022-11-24T04:24:07.510Z,100385.00
2022-11-24T04:26:35.009Z,100379.13
2022-11-24T04:29:02.556Z,100382.09
2022-11-24T04:31:30.116Z,100377.28
2022-11-24T04:33:57.726Z,100386.50
2022-11-24T04:36:25.173Z,100381.16
2022-11-24T04:39:25.474Z,100387.34
2022-11-24T04:41:43.740Z,100382.50
2022-11-24T04:44:11.149Z,100394.00
2022-11-24T04:46:38.652Z,100383.25
2022-11-24T04:49:06.317Z,100388.09
2022-11-24T04:51:33.665Z,100384.56
2022-11-24T04:54:01.096Z,100383.16
2022-11-24T04:56:28.587Z,100392.97
2022-11-24T04:58:55.952Z,100403.00
2022-11-24T05:01:26.527Z,100407.88
2022-11-24T05:03:55.118Z,100415.22
2022-11-24T05:06:23.506Z,100417.84
2022-11-24T05:08:52.533Z,100406.88
2022-11-24T05:11:19.986Z,100416.00
2022-11-24T05:13:47.412Z,100423.13
2022-11-24T05:16:14.829Z,100430.03
2022-11-24T05:18:42.217Z,100432.41
2022-11-24T05:21:09.653Z,100418.75
2022-11-24T05:23:37.196Z,100448.06
2022-11-24T05:26:04.837Z,100441.19
2022-11-24T05:28:34.945Z,100449.84
2022-11-24T05:31:03.289Z,100458.72
2022-11-24T05:33:33.307Z,100460.09
2022-11-24T05:36:02.776Z,100467.16
2022-11-24T05:38:30.652Z,100468.03
2022-11-24T05:41:06.035Z,100479.63
2022-11-24T05:43:33.673Z,100482.91
2022-11-24T05:46:02.004Z,100495.50
2022-11-24T05:48:29.490Z,100512.66
2022-11-24T05:50:58.034Z,100524.81
2022-11-24T05:53:26.921Z,100523.47
2022-11-24T05:55:54.349Z,100544.19
2022-11-24T05:58:22.026Z,100548.00
2022-11-24T06:00:49.425Z,100549.41
2022-11-24T06:03:16.900Z,100554.16
2022-11-24T06:05:47.113Z,100543.31
2022-11-24T06:08:14.989Z,100555.69
2022-11-24T06:10:42.390Z,100543.34
2022-11-24T06:13:09.820Z,100561.09
2022-11-24T06:15:37.807Z,100552.19
2022-11-24T06:18:05.325Z,100562.22
2022-11-24T06:20:33.232Z,100564.88
2022-11-24T06:23:01.320Z,100565.69
2022-11-24T06:25:29.382Z,100577.44
2022-11-24T06:27:57.001Z,100582.03
2022-11-24T06:30:24.397Z,100581.19
2022-11-24T06:32:55.584Z,100574.22
2022-11-24T06:35:23.042Z,100592.50
2022-11-24T06:37:50.398Z,100597.63
2022-11-24T06:40:20.457Z,100600.00
2022-11-24T06:42:53.693Z,100583.34
2022-11-24T06:45:21.140Z,100584.94
2022-11-24T06:47:48.553Z,100583.59
2022-11-24T06:50:16.442Z,100587.97
2022-11-24T06:52:43.951Z,100595.16
2022-11-24T06:55:11.379Z,100590.06
2022-11-24T06:57:38.806Z,100578.63
2022-11-24T07:00:07.938Z,100579.91
2022-11-24T07:02:35.519Z,100600.25
2022-11-24T07:05:02.952Z,100598.00
2022-11-24T07:07:30.965Z,100605.50
2022-11-24T07:09:58.478Z,100618.22
2022-11-24T07:12:25.780Z,100635.41
2022-11-24T07:14:53.156Z,100629.19
2022-11-24T07:17:20.585Z,100627.97
2022-11-24T07:19:50.476Z,100618.41
2022-11-24T07:22:18.357Z,100621.03
2022-11-24T07:24:45.764Z,100638.22
2022-11-24T07:27:13.403Z,100641.16
2022-11-24T07:29:43.710Z,100658.16
2022-11-24T07:32:13.771Z,100645.81
2022-11-24T07:34:41.184Z,100646.06
2022-11-24T07:37:11.333Z,100646.97
2022-11-24T07:39:38.722Z,100666.09
2022-11-24T07:42:10.490Z,100670.22
2022-11-24T07:44:37.940Z,100666.84
2022-11-24T07:47:07.052Z,100655.69
2022-11-24T07:49:37.424Z,100658.38
2022-11-24T07:52:05.186Z,100660.03
2022-11-24T07:54:32.866Z,100665.88
2022-11-24T07:57:00.496Z,100676.66
2022-11-24T07:59:27.815Z,100683.66
2022-11-24T08:01:55.209Z,100683.47
2022-11-24T08:04:22.833Z,100684.00
2022-11-24T08:06:50.640Z,100702.91
2022-11-24T08:09:17.992Z,100710.09
2022-11-24T08:11:45.413Z,100705.53
2022-11-24T08:14:12.820Z,100705.19
2022-11-24T08:16:40.227Z,100698.19
2022-11-24T08:19:08.414Z,100699.50
2022-11-24T08:21:35.829Z,100705.19
2022-11-24T08:24:03.509Z,100701.16
2022-11-24T08:26:30.926Z,100716.59
2022-11-24T08:28:59.641Z,100720.22
2022-11-24T08:31:33.590Z,100721.00
2022-11-24T08:34:03.748Z,100710.41
2022-11-24T08:36:32.053Z,100702.69
2022-11-24T08:39:01.016Z,100704.91
2022-11-24T08:41:29.582Z,100713.75
2022-11-24T08:43:57.522Z,100711.97
2022-11-24T08:46:25.108Z,100710.00
2022-11-24T08:48:54.515Z,100713.44
2022-11-24T08:51:25.043Z,100719.53
2022-11-24T08:54:00.729Z,100734.56
2022-11-24T08:56:32.966Z,100740.09
2022-11-24T08:59:00.649Z,100749.09
2022-11-24T09:01:28.735Z,100742.81
2022-11-24T09:03:56.630Z,100735.28
2022-11-24T09:06:28.358Z,100734.00
2022-11-24T09:08:57.884Z,100734.44
2022-11-24T09:11:26.161Z,100741.25
2022-11-24T09:13:55.100Z,100745.00
2022-11-24T09:16:26.034Z,100750.41
2022-11-24T09:18:58.950Z,100754.94
2022-11-24T09:21:26.721Z,100758.78
2022-11-24T09:23:55.135Z,100752.97
2022-11-24T09:26:34.403Z,100756.41
2022-11-24T09:29:03.821Z,100759.03
2022-11-24T09:31:34.506Z,100751.78
2022-11-24T09:34:04.463Z,100742.25
2022-11-24T09:36:32.177Z,100743.56
2022-11-24T09:39:00.607Z,100741.53
2022-11-24T09:42:10.717Z,100753.28
2022-11-24T09:44:59.754Z,100741.22
2022-11-24T09:47:38.977Z,100737.75
2022-11-24T09:50:13.880Z,100735.84
2022-11-24T09:52:49.696Z,100737.16
2022-11-24T09:55:38.506Z,100725.28
2022-11-24T09:58:22.721Z,100718.56
2022-11-24T10:00:53.191Z,100716.47
2022-11-24T10:03:27.540Z,100723.44
2022-11-24T10:05:55.513Z,100722.19
2022-11-24T10:08:50.054Z,100716.81
2022-11-24T10:11:30.929Z,100723.25
2022-11-24T10:14:30.642Z,100734.69
2022-11-24T10:17:10.363Z,100744.13
2022-11-24T10:19:59.701Z,100733.78
2022-11-24T10:22:26.958Z,100742.69
2022-11-24T10:25:30.782Z,100741.56
2022-11-24T10:28:03.702Z,100734.88
2022-11-24T10:30:31.308Z,100731.53
2022-11-24T10:33:03.581Z,100735.22
2022-11-24T10:35:49.552Z,100737.81
2022-11-24T10:38:22.949Z,100744.88
2022-11-24T10:40:59.468Z,100743.09
2022-11-24T10:43:28.320Z,100739.09
2022-11-24T10:46:05.537Z,100743.56
2022-11-24T10:48:40.684Z,100745.19
2022-11-24T10:51:40.454Z,100745.81
2022-11-24T10:54:19.346Z,100734.34
2022-11-24T10:56:48.556Z,100747.66
2022-11-24T10:59:27.666Z,100745.25
2022-11-24T11:01:55.644Z,100750.38
2022-11-24T11:04:27.291Z,100747.00
2022-11-24T11:07:21.625Z,100753.00
2022-11-24T11:09:49.901Z,100739.69
2022-11-24T11:12:44.080Z,100737.94
2022-11-24T11:15:31.197Z,100732.16
2022-11-24T11:18:00.352Z,100726.41
2022-11-24T11:20:29.554Z,100735.53
2022-11-24T11:22:58.899Z,100740.81
2022-11-24T11:25:33.255Z,100734.75
2022-11-24T11:28:29.843Z,100745.66
2022-11-24T11:31:16.491Z,100742.44
2022-11-24T11:34:05.460Z,100728.31
2022-11-24T11:36:47.689Z,100732.00
2022-11-24T11:39:34.879Z,100732.31
2022-11-24T11:45:26.663Z,100728.31
2022-11-24T11:48:03.253Z,100728.78
2022-11-24T11:51:23.025Z,100734.34
2022-11-24T11:53:48.329Z,100722.97
2022-11-24T11:56:28.258Z,100728.53
2022-11-24T11:59:06.541Z,100737.47
2022-11-24T12:01:39.941Z,100739.09
2022-11-24T12:04:44.437Z,100734.25
2022-11-24T12:07:27.004Z,100743.53
2022-11-24T12:10:16.719Z,100742.13
2022-11-24T12:13:04.768Z,100734.94
2022-11-24T12:15:41.738Z,100740.22
2022-11-24T12:19:03.043Z,100736.25
2022-11-24T12:21:52.152Z,100740.09
2022-11-24T12:25:14.105Z,100748.28
2022-11-24T12:28:06.774Z,100742.16
2022-11-24T12:31:01.311Z,100743.63
2022-11-24T12:33:51.594Z,100741.03
2022-11-24T12:36:35.805Z,100757.19
2022-11-24T12:39:13.528Z,100742.22
2022-11-24T12:42:00.210Z,100742.69
2022-11-24T12:45:06.175Z,100739.16
2022-11-24T12:47:46.417Z,100738.81
2022-11-24T12:50:18.597Z,100741.59
2022-11-24T12:52:58.636Z,100759.19
2022-11-24T12:55:28.775Z,100741.09
2022-11-24T12:58:07.806Z,100745.28
2022-11-24T13:00:53.428Z,100753.28
2022-11-24T13:03:39.316Z,100755.53
2022-11-24T13:06:11.200Z,100758.91
2022-11-24T13:08:38.967Z,100761.78
2022-11-24T13:11:27.504Z,100764.69
2022-11-24T13:14:23.656Z,100758.91
2022-11-24T13:19:42.572Z,100754.09
2022-11-24T13:22:27.033Z,100767.25
2022-11-24T13:25:14.540Z,100765.81
2022-11-24T13:27:44.423Z,100770.44
2022-11-24T13:30:33.859Z,100764.50
2022-11-24T13:33:16.913Z,100756.00
2022-11-24T13:36:02.925Z,100750.91
2022-11-24T13:38:45.262Z,100755.22
2022-11-24T13:41:51.283Z,100754.59
2022-11-24T13:44:24.315Z,100761.50
2022-11-24T13:47:06.121Z,100767.06
2022-11-24T13:49:46.474Z,100767.88
2022-11-24T13:52:35.908Z,100775.72
2022-11-24T13:55:32.597Z,100776.84
2022-11-24T13:58:18.293Z,100782.91
2022-11-24T14:01:11.557Z,100762.59
2022-11-24T14:04:07.131Z,100758.56
2022-11-24T14:06:42.962Z,100763.38
2022-11-24T14:09:19.289Z,100760.19
2022-11-24T14:12:05.165Z,100759.88
2022-11-24T14:14:32.914Z,100756.81
2022-11-24T14:17:16.035Z,100757.31
2022-11-24T14:19:45.593Z,100747.53
2022-11-24T14:22:20.140Z,100741.13
2022-11-24T14:24:53.479Z,100742.44
2022-11-24T14:27:26.704Z,100752.19
2022-11-24T14:30:03.527Z,100754.91
2022-11-24T14:32:31.624Z,100748.22
2022-11-24T14:34:59.078Z,100745.16
2022-11-24T14:37:26.777Z,100751.25
2022-11-24T14:39:54.257Z,100750.75
2022-11-24T14:42:25.030Z,100750.91
2022-11-24T14:44:58.725Z,100751.56
2022-11-24T14:47:32.730Z,100760.81
2022-11-24T14:50:16.361Z,100767.22
2022-11-24T14:52:47.292Z,100768.16
2022-11-24T14:55:25.538Z,100773.63
2022-11-24T14:57:52.930Z,100768.31
2022-11-24T15:00:26.999Z,100770.69
2022-11-24T15:03:07.810Z,100781.41
2022-11-24T15:05:54.284Z,100778.69
2022-11-24T15:08:23.881Z,100779.13
2022-11-24T15:10:58.048Z,100781.19
2022-11-24T15:13:26.119Z,100788.03
2022-11-24T15:16:01.984Z,100793.31
2022-11-24T15:18:48.179Z,100789.44
2022-11-24T15:21:19.346Z,100799.53
2022-11-24T15:24:16.134Z,100800.94
2022-11-24T15:26:44.868Z,100796.63
2022-11-24T15:29:12.585Z,100809.69
2022-11-24T15:31:41.326Z,100809.56
2022-11-24T15:34:13.619Z,100805.66
2022-11-24T15:36:41.062Z,100805.78
2022-11-24T15:39:08.386Z,100805.44
2022-11-24T15:41:35.734Z,100805.41
2022-11-24T15:44:03.175Z,100803.13
2022-11-24T15:46:37.796Z,100809.50
2022-11-24T15:49:06.197Z,100809.09
2022-11-24T15:51:35.507Z,100807.34
2022-11-24T15:54:02.865Z,100813.69
2022-11-24T15:56:35.220Z,100807.69
2022-11-24T15:59:04.276Z,100810.72
2022-11-24T16:01:37.000Z,100802.91
2022-11-24T16:04:04.762Z,100811.34
2022-11-24T16:06:32.229Z,100817.81
2022-11-24T16:09:00.105Z,100831.81
2022-11-24T16:11:27.478Z,100832.91
2022-11-24T16:13:54.858Z,100831.13
2022-11-24T16:16:24.679Z,100829.75
2022-11-24T16:18:52.705Z,100843.09
2022-11-24T16:21:20.018Z,100836.78
2022-11-24T16:23:48.690Z,100849.56
2022-11-24T16:26:16.323Z,100842.53
2022-11-24T16:28:46.480Z,100836.00
2022-11-24T16:31:16.055Z,100824.84
2022-11-24T16:33:46.428Z,100830.84
2022-11-24T16:36:14.336Z,100826.06
2022-11-24T16:38:41.844Z,100838.63
2022-11-24T16:41:10.408Z,100848.66
2022-11-24T16:43:40.897Z,100848.56
2022-11-24T16:46:17.341Z,100842.81
2022-11-24T16:48:46.845Z,100840.31
2022-11-24T16:51:18.590Z,100834.88
2022-11-24T16:53:46.165Z,100841.63
2022-11-24T16:56:14.827Z,100833.09
2022-11-24T16:58:42.625Z,100848.97
2022-11-24T17:01:12.737Z,100850.47
2022-11-24T17:03:41.142Z,100863.72
2022-11-24T17:06:11.533Z,100872.03
2022-11-24T17:08:40.620Z,100888.97
2022-11-24T17:11:11.014Z,100890.81
2022-11-24T17:13:38.997Z,100894.91
2022-11-24T17:16:12.521Z,100906.03
2022-11-24T17:18:40.204Z,100901.28
2022-11-24T17:21:13.774Z,100909.41
2022-11-24T17:23:41.456Z,100907.78
2022-11-24T17:26:12.071Z,100915.63
2022-11-24T17:28:40.762Z,100912.19
2022-11-24T17:31:08.208Z,100908.19
2022-11-24T17:33:38.868Z,100908.97
2022-11-24T17:36:06.854Z,100919.00
2022-11-24T17:38:35.168Z,100922.78
2022-11-24T17:41:02.998Z,100920.09
2022-11-24T17:43:30.531Z,100916.22
2022-11-24T17:46:00.988Z,100928.56
2022-11-24T17:48:28.985Z,100922.00
2022-11-24T17:51:07.982Z,100930.91
2022-11-24T17:53:37.641Z,100925.81
2022-11-24T17:56:08.835Z,100933.41
2022-11-24T17:58:42.744Z,100928.28
2022-11-24T18:01:14.704Z,100929.31
2022-11-24T18:03:43.364Z,100942.78
2022-11-24T18:06:12.569Z,100935.19
2022-11-24T18:08:42.574Z,100942.19
2022-11-24T18:11:13.026Z,100942.53
2022-11-24T18:14:00.956Z,100947.53
2022-11-24T18:16:31.086Z,100948.47
2022-11-24T18:19:09.910Z,100951.56
2022-11-24T18:21:40.063Z,100953.16
2022-11-24T18:24:10.106Z,100953.59
2022-11-24T18:26:39.106Z,100956.81
2022-11-24T18:29:06.753Z,100954.69
2022-11-24T18:31:37.471Z,100960.47
2022-11-24T18:34:06.062Z,100956.72
2022-11-24T18:36:34.948Z,100957.53
2022-11-24T18:39:04.706Z,100957.09
2022-11-24T18:41:32.528Z,100966.66
2022-11-24T18:44:02.956Z,100975.44
2022-11-24T18:46:30.318Z,100965.34
2022-11-24T18:48:57.725Z,100977.31
2022-11-24T18:51:25.250Z,100990.69
2022-11-24T18:54:00.039Z,100988.66
2022-11-24T18:56:27.639Z,100989.19
2022-11-24T18:58:56.598Z,100989.41
2022-11-24T19:01:26.693Z,100993.38
2022-11-24T19:03:56.437Z,100995.28
2022-11-24T19:06:32.834Z,100983.78
2022-11-24T19:09:11.807Z,100990.00
2022-11-24T19:11:40.802Z,100998.91
2022-11-24T19:14:11.099Z,101008.38
2022-11-24T19:16:39.391Z,101011.19
2022-11-24T19:19:07.061Z,101017.25
2022-11-24T19:21:37.259Z,101008.91
2022-11-24T19:24:06.544Z,101007.50
2022-11-24T19:26:37.149Z,100998.28
2022-11-24T19:29:06.117Z,101005.00
2022-11-24T19:31:34.803Z,101011.50
2022-11-24T19:34:03.593Z,100997.78
2022-11-24T19:36:31.538Z,101003.78
2022-11-24T19:38:59.608Z,101003.72
2022-11-24T19:41:29.653Z,101002.09
2022-11-24T19:43:58.485Z,101002.09
2022-11-24T19:46:27.758Z,101012.09
2022-11-24T19:48:57.309Z,101014.31
2022-11-24T19:51:27.641Z,101016.41
2022-11-24T19:53:55.037Z,101015.91
2022-11-24T19:56:28.037Z,101022.72
2022-11-24T19:58:56.026Z,101022.75
2022-11-24T20:01:26.222Z,101022.50
2022-11-24T20:03:58.898Z,101029.53
2022-11-24T20:06:28.743Z,101024.69
2022-11-24T20:08:58.632Z,101019.84
2022-11-24T20:11:27.604Z,101026.31
2022-11-24T20:13:55.604Z,101031.94
2022-11-24T20:16:29.777Z,101040.88
2022-11-24T20:19:05.721Z,101046.28
2022-11-24T20:21:36.425Z,101051.19
2022-11-24T20:24:16.160Z,101053.59
2022-11-24T20:26:46.869Z,101043.13
2022-11-24T20:29:15.152Z,101053.44
2022-11-24T20:31:45.494Z,101047.19
2022-11-24T20:34:13.780Z,101049.84
2022-11-24T20:36:45.809Z,101047.94
2022-11-24T20:39:25.452Z,101043.84
2022-11-24T20:41:54.418Z,101047.94
2022-11-24T20:44:23.055Z,101045.81
2022-11-24T20:46:50.794Z,101040.13
2022-11-24T20:49:21.848Z,101040.34
2022-11-24T20:51:54.269Z,101036.03
2022-11-24T20:54:25.078Z,101040.94
2022-11-24T20:56:53.630Z,101037.72
2022-11-24T20:59:25.842Z,101038.81
2022-11-24T21:01:57.819Z,101035.56
2022-11-24T21:04:27.059Z,101041.56
2022-11-24T21:06:58.620Z,101054.81
2022-11-24T21:09:28.252Z,101062.47
2022-11-24T21:11:55.577Z,101058.66
2022-11-24T21:14:25.922Z,101062.47
2022-11-24T21:16:53.368Z,101074.94
2022-11-24T21:19:21.233Z,101077.72
2022-11-24T21:21:48.886Z,101079.63
2022-11-24T21:24:18.975Z,101070.94
2022-11-24T21:26:47.844Z,101075.59
2022-11-24T21:29:22.290Z,101083.16
2022-11-24T21:31:49.776Z,101085.06
2022-11-24T21:34:18.630Z,101077.19
2022-11-24T21:36:46.597Z,101081.22
2022-11-24T21:39:14.972Z,101089.31
2022-11-24T21:41:43.520Z,101091.47
2022-11-24T21:44:12.861Z,101096.38
2022-11-24T21:46:45.691Z,101093.38
2022-11-24T21:49:16.861Z,101087.09
2022-11-24T21:51:44.175Z,101080.56
2022-11-24T21:54:11.497Z,101089.72
2022-11-24T21:56:38.856Z,101093.19
2022-11-24T21:59:06.166Z,101097.13
2022-11-24T22:01:33.583Z,101090.97
2022-11-24T22:04:01.113Z,101089.59
2022-11-24T22:06:28.541Z,101082.06
2022-11-24T22:08:57.817Z,101081.50
2022-11-24T22:11:28.473Z,101089.91
2022-11-24T22:13:56.041Z,101088.63
2022-11-24T22:16:27.091Z,101086.44
2022-11-24T22:18:54.668Z,101083.22
2022-11-24T22:21:24.400Z,101086.16
2022-11-24T22:23:55.185Z,101088.34
2022-11-24T22:26:23.943Z,101095.88
2022-11-24T22:28:52.064Z,101103.47
2022-11-24T22:31:21.683Z,101101.09
2022-11-24T22:33:50.274Z,101101.81
2022-11-24T22:36:20.940Z,101090.75
2022-11-24T22:38:53.705Z,101097.75
2022-11-24T22:41:21.427Z,101092.38
2022-11-24T22:43:49.240Z,101099.16
2022-11-24T22:46:24.928Z,101097.59
2022-11-24T22:48:53.702Z,101094.31
2022-11-24T22:51:26.812Z,101105.41
2022-11-24T22:53:56.758Z,101107.59
2022-11-24T22:56:24.530Z,101101.09
2022-11-24T22:58:51.924Z,101099.78
2022-11-24T23:01:21.586Z,101097.38
2022-11-24T23:03:49.941Z,101088.69
2022-11-24T23:06:24.806Z,101090.84
2022-11-24T23:08:53.148Z,101095.44
2022-11-24T23:11:29.061Z,101098.94
2022-11-24T23:14:02.300Z,101094.91
2022-11-24T23:16:31.817Z,101093.84
2022-11-24T23:18:59.411Z,101083.59
2022-11-24T23:21:29.369Z,101076.84
2022-11-24T23:23:59.033Z,101073.06
2022-11-24T23:26:31.841Z,101086.00
2022-11-24T23:28:59.319Z,101084.69
2022-11-24T23:31:28.870Z,101092.00
2022-11-24T23:34:01.566Z,101084.19
2022-11-24T23:36:29.922Z,101083.94
2022-11-24T23:39:05.206Z,101072.13
2022-11-24T23:41:32.897Z,101057.28
2022-11-24T23:44:00.325Z,101060.22
2022-11-24T23:46:28.308Z,101075.56
2022-11-24T23:48:55.777Z,101080.97
2022-11-24T23:51:31.533Z,101079.88
2022-11-24T23:54:00.210Z,101076.66
2022-11-24T23:56:32.550Z,101072.34
2022-11-24T23:59:01.686Z,101075.59
